ZSPD/PVG METAR and TAF weather

Enter ICAO airport designator
Station Type Date Time Source
ZSPD METAR 2019/05/21 20:30 UTC NOAA

ZSPD 212030Z 19003MPS CAVOK 16/12 Q1010 NOSIG


Station Type Date Time Source
ZSPD Decoded METAR 2019/05/21 20:30 UTC NOAA

Shanghai / Pudong, China (ZSPD) 31-07N 121-46E
May 21, 2019 - 04:30 PM EDT / 2019.05.21 2030 UTC
Wind: from the S (190 degrees) at 7 MPH (6 KT):0
Visibility: greater than 7 mile(s):0
Temperature: 60 F (16 C)
Dew Point: 53 F (12 C)
Relative Humidity: 77%
Pressure (altimeter): 29.83 in. Hg (1010 hPa)
ob: ZSPD 212030Z 19003MPS CAVOK 16/12 Q1010 NOSIG
cycle: 20

Station Type Date Time Source
ZSPD TAF 2019/05/21 18:03 UTC NOAA

TAF ZSPD 211516Z 2118/2218 21004MPS 6000 BKN016 TX29/2206Z TN17/2121Z

Example: see airport list